^^
Datos históricos de la estación: Murcia-Puente Tocinos
Diario Informe para Agosto 02, 2021 Unidades:  Ambas    Ingés   Métrico
Diario Semanal Mensual Anual
  Máxima: Mínima: Promedio:
Temperatura: 84.7 °F /  29.3 °C 73 °F /  22.8 °C 78.1 °F /  25.6 °C
Punto de rocio: 69.1 °F /  20.6 °C 62.4 °F /  16.9 °C 65.7 °F /  18.7 °C
Humedad: 80% 47.7% 67%
Velocidad viento: 12.3mph /  19.8km/h - 6.5mph /  10.4km/h
Racha viento: 22.3mph /  35.9km/h - -
Viento- - NE
Presión: 29.9 in /  1014.1 hPa 29.9 in /  1012.3 hPa -
Precipitación: 0 in /  0.0 mm    
 
 
Tabla de datos para Agosto 02, 2021
Hora Temperatura Punto de rocio Presión Viento Velocidad viento Racha viento Humedad Intensidad lluvia(por hora) Nubes
00:04 75.7 °F /  24.3 °C 68.9 °F /  20.5 °C 29.9in /  1013.3hPa NNE 5.9mph /  9.5km/h 9.2mph /  14.8km/h 79% 0in /  0.0mm
00:09 75.7 °F /  24.3 °C 68.7 °F /  20.4 °C 29.9in /  1013.3hPa NE 5.5mph /  8.8km/h 9mph /  14.5km/h 79% 0in /  0.0mm
00:14 75.7 °F /  24.3 °C 68.9 °F /  20.5 °C 29.9in /  1013.2hPa NNE 5.2mph /  8.4km/h 11mph /  17.7km/h 79.3% 0in /  0.0mm
00:19 75.7 °F /  24.3 °C 69.1 °F /  20.6 °C 29.9in /  1013.2hPa NE 5.3mph /  8.6km/h 9.2mph /  14.8km/h 80% 0in /  0.0mm
00:24 75.7 °F /  24.3 °C 69.1 °F /  20.6 °C 29.9in /  1013.2hPa NE 5.4mph /  8.7km/h 7.4mph /  11.9km/h 80% 0in /  0.0mm
00:29 75.7 °F /  24.3 °C 69.1 °F /  20.6 °C 29.9in /  1013.2hPa NE 4.7mph /  7.6km/h 7mph /  11.3km/h 80% 0in /  0.0mm
00:34 75.7 °F /  24.3 °C 69.1 °F /  20.6 °C 29.9in /  1013.2hPa NE 4.3mph /  6.9km/h 7.4mph /  11.9km/h 80% 0in /  0.0mm
00:39 75.7 °F /  24.3 °C 69.1 °F /  20.6 °C 29.9in /  1013.2hPa NE 4.6mph /  7.4km/h 8.1mph /  13km/h 80% 0in /  0.0mm
00:44 75.7 °F /  24.3 °C 69.1 °F /  20.6 °C 29.9in /  1013.2hPa NE 4.7mph /  7.6km/h 8.5mph /  13.7km/h 80% 0in /  0.0mm
00:49 75.7 °F /  24.3 °C 69.1 °F /  20.6 °C 29.9in /  1013.2hPa NE 4.7mph /  7.6km/h 9mph /  14.5km/h 80% 0in /  0.0mm
00:54 75.7 °F /  24.3 °C 69.1 °F /  20.6 °C 29.9in /  1013.2hPa NE 4.7mph /  7.6km/h 10.4mph /  16.7km/h 80% 0in /  0.0mm
00:59 75.6 °F /  24.2 °C 69.1 °F /  20.6 °C 29.9in /  1013.2hPa NNE 5.2mph /  8.3km/h 10.4mph /  16.7km/h 80% 0in /  0.0mm
01:04 75.6 °F /  24.2 °C 69.1 °F /  20.6 °C 29.9in /  1013.2hPa NE 5.4mph /  8.7km/h 10mph /  16.1km/h 80% 0in /  0.0mm
01:09 75.6 °F /  24.2 °C 69.1 °F /  20.6 °C 29.9in /  1013.3hPa NNE 5.7mph /  9.2km/h 10.4mph /  16.7km/h 80% 0in /  0.0mm
01:14 75.6 °F /  24.2 °C 69.1 °F /  20.6 °C 29.9in /  1013.3hPa NE 5.9mph /  9.5km/h 10mph /  16.1km/h 80% 0in /  0.0mm
01:19 75.4 °F /  24.1 °C 68.9 °F /  20.5 °C 29.9in /  1013.3hPa NE 5.1mph /  8.2km/h 8mph /  12.9km/h 80% 0in /  0.0mm
01:24 75.4 °F /  24.1 °C 68.5 °F /  20.3 °C 29.9in /  1013.3hPa NNE 4.7mph /  7.6km/h 9.7mph /  15.6km/h 79.2% 0in /  0.0mm
01:29 75.4 °F /  24.1 °C 68.4 °F /  20.2 °C 29.9in /  1013.1hPa NE 4.7mph /  7.6km/h 10mph /  16.1km/h 79% 0in /  0.0mm
01:34 75.4 °F /  24.1 °C 68.4 °F /  20.2 °C 29.9in /  1013.1hPa NNE 4.7mph /  7.6km/h 9.2mph /  14.8km/h 79% 0in /  0.0mm
01:39 75.4 °F /  24.1 °C 68.4 °F /  20.2 °C 29.9in /  1013.1hPa NNE 5mph /  8.1km/h 9mph /  14.5km/h 79% 0in /  0.0mm
01:44 75.4 °F /  24.1 °C 68.4 °F /  20.2 °C 29.9in /  1013.1hPa NNE 5.2mph /  8.4km/h 9mph /  14.5km/h 79% 0in /  0.0mm
01:49 75.4 °F /  24.1 °C 68.4 °F /  20.2 °C 29.9in /  1013.1hPa NNE 4.9mph /  7.9km/h 9.2mph /  14.8km/h 79% 0in /  0.0mm
01:54 75.2 °F /  24 °C 68.2 °F /  20.1 °C 29.9in /  1013.2hPa NNE 4.7mph /  7.6km/h 9mph /  14.5km/h 79% 0in /  0.0mm
01:59 75.2 °F /  24 °C 68.2 °F /  20.1 °C 29.9in /  1013.2hPa NNE 5.2mph /  8.3km/h 8.7mph /  14km/h 79% 0in /  0.0mm
02:04 75 °F /  23.9 °C 68.2 °F /  20.1 °C 29.9in /  1013.2hPa NNE 5.4mph /  8.7km/h 9.2mph /  14.8km/h 79% 0in /  0.0mm
02:09 75 °F /  23.9 °C 67.8 °F /  19.9 °C 29.9in /  1013.3hPa NNE 5.7mph /  9.2km/h 9.2mph /  14.8km/h 78.1% 0in /  0.0mm
02:14 75 °F /  23.9 °C 67.6 °F /  19.8 °C 29.9in /  1013.3hPa NE 5.9mph /  9.5km/h 9mph /  14.5km/h 78% 0in /  0.0mm
02:19 75 °F /  23.9 °C 67.6 °F /  19.8 °C 29.9in /  1013.3hPa NE 5.2mph /  8.4km/h 9.2mph /  14.8km/h 77.9% 0in /  0.0mm
02:24 75 °F /  23.9 °C 67.3 °F /  19.6 °C 29.9in /  1013.3hPa NNE 4.7mph /  7.6km/h 9mph /  14.5km/h 77% 0in /  0.0mm
02:29 75 °F /  23.9 °C 67.3 °F /  19.6 °C 29.9in /  1013.2hPa NE 5.2mph /  8.3km/h 11.8mph /  19km/h 77% 0in /  0.0mm
02:34 75 °F /  23.9 °C 66.9 °F /  19.4 °C 29.9in /  1013.2hPa NNE 5.4mph /  8.7km/h 12mph /  19.3km/h 76.2% 0in /  0.0mm
02:39 75 °F /  23.9 °C 66.9 °F /  19.4 °C 29.9in /  1013.2hPa NE 6.3mph /  10.1km/h 10.4mph /  16.7km/h 76% 0in /  0.0mm
02:44 75 °F /  23.9 °C 66.9 °F /  19.4 °C 29.9in /  1013.1hPa NE 6.9mph /  11.1km/h 10mph /  16.1km/h 76% 0in /  0.0mm
02:49 75 °F /  23.9 °C 66.9 °F /  19.4 °C 29.9in /  1013.1hPa NNE 5.8mph /  9.4km/h 8.5mph /  13.7km/h 76% 0in /  0.0mm
02:54 74.8 °F /  23.8 °C 66.9 °F /  19.4 °C 29.9in /  1013.1hPa NE 5.2mph /  8.4km/h 10.4mph /  16.7km/h 76% 0in /  0.0mm
02:59 74.8 °F /  23.8 °C 66.7 °F /  19.3 °C 29.9in /  1013.0hPa NNE 5.7mph /  9.1km/h 10mph /  16.1km/h 75.7% 0in /  0.0mm
03:04 74.8 °F /  23.8 °C 66.4 °F /  19.1 °C 29.9in /  1013.0hPa NE 5.9mph /  9.5km/h 9mph /  14.5km/h 75% 0in /  0.0mm
03:09 74.8 °F /  23.8 °C 66.4 °F /  19.1 °C 29.9in /  1013.0hPa NE 5.5mph /  8.8km/h 9.2mph /  14.8km/h 75% 0in /  0.0mm
03:14 74.8 °F /  23.8 °C 66.4 °F /  19.1 °C 29.9in /  1013.0hPa NE 5.2mph /  8.4km/h 9mph /  14.5km/h 75% 0in /  0.0mm
03:19 74.8 °F /  23.8 °C 66.4 °F /  19.1 °C 29.9in /  1013.0hPa NE 5.2mph /  8.4km/h 9mph /  14.5km/h 75% 0in /  0.0mm
03:24 74.8 °F /  23.8 °C 66.4 °F /  19.1 °C 29.9in /  1013.0hPa NNE 5.2mph /  8.4km/h 9.2mph /  14.8km/h 75% 0in /  0.0mm
03:29 74.7 °F /  23.7 °C 66.2 °F /  19 °C 29.9in /  1013.0hPa NNE 5.2mph /  8.4km/h 9mph /  14.5km/h 75% 0in /  0.0mm
03:34 74.7 °F /  23.7 °C 66.2 °F /  19 °C 29.9in /  1013.0hPa NNE 5.2mph /  8.4km/h 9.7mph /  15.6km/h 75% 0in /  0.0mm
03:39 74.7 °F /  23.7 °C 66 °F /  18.9 °C 29.9in /  1013.2hPa NNE 5.6mph /  9km/h 10mph /  16.1km/h 75% 0in /  0.0mm
03:44 74.5 °F /  23.6 °C 66 °F /  18.9 °C 29.9in /  1013.2hPa NNE 5.9mph /  9.5km/h 10mph /  16.1km/h 75% 0in /  0.0mm
03:49 74.5 °F /  23.6 °C 66 °F /  18.9 °C 29.9in /  1013.2hPa NNE 5.6mph /  9km/h 9.2mph /  14.8km/h 75% 0in /  0.0mm
03:54 74.5 °F /  23.6 °C 66 °F /  18.9 °C 29.9in /  1013.2hPa NNE 5.4mph /  8.7km/h 9mph /  14.5km/h 75% 0in /  0.0mm
03:59 74.3 °F /  23.5 °C 65.8 °F /  18.8 °C 29.9in /  1013.1hPa NNE 5mph /  8km/h 7.4mph /  11.9km/h 75% 0in /  0.0mm
04:04 74.3 °F /  23.5 °C 65.8 °F /  18.8 °C 29.9in /  1013.1hPa NNE 4.7mph /  7.6km/h 9.7mph /  15.6km/h 75% 0in /  0.0mm
04:09 74.3 °F /  23.5 °C 65.8 °F /  18.8 °C 29.9in /  1013.3hPa NNE 5mph /  8.1km/h 10mph /  16.1km/h 75% 0in /  0.0mm
04:14 74.1 °F /  23.4 °C 65.7 °F /  18.7 °C 29.9in /  1013.3hPa NNE 5.2mph /  8.4km/h 9.2mph /  14.8km/h 75% 0in /  0.0mm
04:19 74.1 °F /  23.4 °C 65.7 °F /  18.7 °C 29.9in /  1013.3hPa NNE 5.6mph /  9km/h 10.4mph /  16.7km/h 75% 0in /  0.0mm
04:24 74.1 °F /  23.4 °C 65.7 °F /  18.7 °C 29.9in /  1013.3hPa NNE 5.9mph /  9.5km/h 10mph /  16.1km/h 75% 0in /  0.0mm
04:29 74.1 °F /  23.4 °C 65.7 °F /  18.7 °C 29.9in /  1013.2hPa NE 5.6mph /  9km/h 8.5mph /  13.7km/h 75% 0in /  0.0mm
04:34 74.1 °F /  23.4 °C 65.7 °F /  18.7 °C 29.9in /  1013.2hPa NNE 5.4mph /  8.7km/h 9mph /  14.5km/h 75% 0in /  0.0mm
04:39 74.1 °F /  23.4 °C 65.7 °F /  18.7 °C 29.9in /  1013.3hPa NE 5.3mph /  8.5km/h 9.2mph /  14.8km/h 75% 0in /  0.0mm
04:44 74.1 °F /  23.4 °C 66 °F /  18.9 °C 29.9in /  1013.3hPa NE 5.2mph /  8.4km/h 9mph /  14.5km/h 75.7% 0in /  0.0mm
04:49 74.1 °F /  23.4 °C 66 °F /  18.9 °C 29.9in /  1013.3hPa NE 5.3mph /  8.6km/h 8.1mph /  13km/h 76% 0in /  0.0mm
04:54 74.1 °F /  23.4 °C 66 °F /  18.9 °C 29.9in /  1013.3hPa NE 5.4mph /  8.7km/h 8.1mph /  13km/h 76% 0in /  0.0mm
04:59 73.9 °F /  23.3 °C 65.8 °F /  18.8 °C 29.9in /  1013.1hPa NE 5.3mph /  8.5km/h 8.1mph /  13km/h 76% 0in /  0.0mm
05:04 73.9 °F /  23.3 °C 65.8 °F /  18.8 °C 29.9in /  1013.1hPa NNE 5.2mph /  8.4km/h 8.5mph /  13.7km/h 76% 0in /  0.0mm
05:09 73.9 °F /  23.3 °C 66 °F /  18.9 °C 29.9in /  1013.1hPa NE 5.3mph /  8.6km/h 9.2mph /  14.8km/h 76% 0in /  0.0mm
05:14 73.9 °F /  23.3 °C 65.8 °F /  18.8 °C 29.9in /  1013.0hPa NE 5.4mph /  8.7km/h 9.2mph /  14.8km/h 76% 0in /  0.0mm
05:19 73.9 °F /  23.3 °C 66 °F /  18.9 °C 29.9in /  1013.0hPa NE 5.3mph /  8.5km/h 9mph /  14.5km/h 76% 0in /  0.0mm
05:24 73.9 °F /  23.3 °C 66 °F /  18.9 °C 29.9in /  1013.0hPa NNE 5.2mph /  8.4km/h 7.4mph /  11.9km/h 76% 0in /  0.0mm
05:29 73.9 °F /  23.3 °C 65.8 °F /  18.8 °C 29.9in /  1013.0hPa NE 4.7mph /  7.5km/h 7mph /  11.3km/h 76% 0in /  0.0mm
05:34 73.9 °F /  23.3 °C 65.8 °F /  18.8 °C 29.9in /  1013.0hPa NE 4.3mph /  6.9km/h 7mph /  11.3km/h 76% 0in /  0.0mm
05:39 73.8 °F /  23.2 °C 66 °F /  18.9 °C 29.9in /  1013.0hPa NE 4.3mph /  6.9km/h 8.1mph /  13km/h 76.7% 0in /  0.0mm
05:44 73.8 °F /  23.2 °C 66 °F /  18.9 °C 29.9in /  1012.9hPa NE 4.3mph /  6.9km/h 8mph /  12.9km/h 77% 0in /  0.0mm
05:49 73.8 °F /  23.2 °C 66 °F /  18.9 °C 29.9in /  1012.9hPa NE 4.3mph /  6.9km/h 7mph /  11.3km/h 77% 0in /  0.0mm
05:54 73.6 °F /  23.1 °C 66 °F /  18.9 °C 29.9in /  1012.9hPa NE 4.3mph /  6.9km/h 8.1mph /  13km/h 77% 0in /  0.0mm
05:59 73.6 °F /  23.1 °C 65.8 °F /  18.8 °C 29.9in /  1012.9hPa NNE 4.3mph /  6.9km/h 8mph /  12.9km/h 77% 0in /  0.0mm
06:04 73.6 °F /  23.1 °C 65.8 °F /  18.8 °C 29.9in /  1012.9hPa NE 4.3mph /  6.9km/h 5.2mph /  8.4km/h 77% 0in /  0.0mm
06:09 73.6 °F /  23.1 °C 65.8 °F /  18.8 °C 29.9in /  1013.0hPa NE 3.6mph /  5.8km/h 6.9mph /  11.1km/h 77% 0in /  0.0mm
06:14 73.6 °F /  23.1 °C 65.8 °F /  18.8 °C 29.9in /  1013.0hPa NE 3.1mph /  5km/h 7mph /  11.3km/h 77% 0in /  0.0mm
06:19 73.4 °F /  23 °C 65.7 °F /  18.7 °C 29.9in /  1013.0hPa NNE 3.7mph /  5.9km/h 6mph /  9.7km/h 77% 0in /  0.0mm
06:24 73.2 °F /  22.9 °C 65.7 °F /  18.7 °C 29.9in /  1013.0hPa NNE 4mph /  6.5km/h 5.2mph /  8.4km/h 77.2% 0in /  0.0mm
06:29 73.2 °F /  22.9 °C 65.8 °F /  18.8 °C 29.9in /  1012.9hPa NNE 3.5mph /  5.6km/h 5.9mph /  9.5km/h 78% 0in /  0.0mm
06:34 73 °F /  22.8 °C 65.8 °F /  18.8 °C 29.9in /  1012.9hPa NE 3.1mph /  5km/h 6mph /  9.7km/h 78% 0in /  0.0mm
06:39 73 °F /  22.8 °C 65.8 °F /  18.8 °C 29.9in /  1012.9hPa NE 3.7mph /  5.9km/h 5.8mph /  9.3km/h 78% 0in /  0.0mm
06:44 73 °F /  22.8 °C 65.8 °F /  18.8 °C 29.9in /  1012.8hPa NNE 4mph /  6.5km/h 6mph /  9.7km/h 78% 0in /  0.0mm
06:49 73 °F /  22.8 °C 65.8 °F /  18.8 °C 29.9in /  1012.8hPa North 3.4mph /  5.4km/h 5.2mph /  8.4km/h 78% 0in /  0.0mm
06:54 73 °F /  22.8 °C 65.8 °F /  18.8 °C 29.9in /  1012.9hPa NE 2.9mph /  4.7km/h 5.8mph /  9.3km/h 78% 0in /  0.0mm
06:59 73 °F /  22.8 °C 65.8 °F /  18.8 °C 29.9in /  1012.9hPa NE 2.9mph /  4.7km/h 6mph /  9.7km/h 78% 0in /  0.0mm
07:04 73 °F /  22.8 °C 65.8 °F /  18.8 °C 29.9in /  1012.9hPa NNE 2.9mph /  4.6km/h 6mph /  9.7km/h 78% 0in /  0.0mm
07:09 73 °F /  22.8 °C 65.8 °F /  18.8 °C 29.9in /  1013.0hPa NNE 3mph /  4.9km/h 5mph /  8km/h 78% 0in /  0.0mm
07:14 73 °F /  22.8 °C 65.8 °F /  18.8 °C 29.9in /  1013.0hPa NE 3.1mph /  5km/h 5mph /  8km/h 78% 0in /  0.0mm
07:19 73 °F /  22.8 °C 65.8 °F /  18.8 °C 29.9in /  1013.0hPa NE 3mph /  4.8km/h 5.2mph /  8.4km/h 78% 0in /  0.0mm
07:24 73 °F /  22.8 °C 65.7 °F /  18.7 °C 29.9in /  1013.0hPa NNE 2.9mph /  4.7km/h 5.2mph /  8.4km/h 77.5% 0in /  0.0mm
07:29 73.2 °F /  22.9 °C 65.7 °F /  18.7 °C 29.9in /  1013.0hPa NNE 2.9mph /  4.7km/h 5mph /  8km/h 77% 0in /  0.0mm
07:34 73.2 °F /  22.9 °C 65.7 °F /  18.7 °C 29.9in /  1013.0hPa NE 2.9mph /  4.7km/h 5mph /  8km/h 77% 0in /  0.0mm
07:39 73.2 °F /  22.9 °C 65.7 °F /  18.7 °C 29.9in /  1013.2hPa NNE 2.9mph /  4.7km/h 5mph /  8km/h 77% 0in /  0.0mm
07:44 73.4 °F /  23 °C 65.7 °F /  18.7 °C 29.9in /  1013.2hPa North 2.9mph /  4.7km/h 5mph /  8km/h 77% 0in /  0.0mm
07:49 73.6 °F /  23.1 °C 65.8 °F /  18.8 °C 29.9in /  1013.2hPa North 2.3mph /  3.7km/h 4mph /  6.4km/h 77% 0in /  0.0mm
07:54 73.6 °F /  23.1 °C 65.8 °F /  18.8 °C 29.9in /  1013.4hPa North 2mph /  3.2km/h 4.7mph /  7.6km/h 77% 0in /  0.0mm
07:59 73.6 °F /  23.1 °C 65.5 °F /  18.6 °C 29.9in /  1013.4hPa North 2mph /  3.2km/h 5mph /  8km/h 76% 0in /  0.0mm
08:04 73.6 °F /  23.1 °C 65.5 °F /  18.6 °C 29.9in /  1013.4hPa NNE 2mph /  3.2km/h 5mph /  8km/h 76% 0in /  0.0mm
08:09 73.6 °F /  23.1 °C 65.5 °F /  18.6 °C 29.9in /  1013.4hPa NNE 2.6mph /  4.2km/h 5mph /  8km/h 76.1% 0in /  0.0mm
08:14 73.8 °F /  23.2 °C 65.8 °F /  18.8 °C 29.9in /  1013.4hPa NNE 2.9mph /  4.7km/h 5mph /  8km/h 76.4% 0in /  0.0mm
08:19 73.9 °F /  23.3 °C 65.8 °F /  18.8 °C 29.9in /  1013.4hPa North 2.5mph /  4.1km/h 5.8mph /  9.3km/h 76% 0in /  0.0mm
08:24 73.9 °F /  23.3 °C 65.8 °F /  18.8 °C 29.9in /  1013.5hPa NNE 2.4mph /  3.9km/h 6mph /  9.7km/h 76% 0in /  0.0mm
08:29 73.9 °F /  23.3 °C 65.8 °F /  18.8 °C 29.9in /  1013.5hPa NNE 3.1mph /  5km/h 6mph /  9.7km/h 76% 0in /  0.0mm
08:34 73.9 °F /  23.3 °C 65.8 °F /  18.8 °C 29.9in /  1013.5hPa NNE 3.6mph /  5.8km/h 6mph /  9.7km/h 76% 0in /  0.0mm
08:39 73.9 °F /  23.3 °C 66 °F /  18.9 °C 29.9in /  1013.7hPa NNE 3.2mph /  5.2km/h 5mph /  8km/h 76% 0in /  0.0mm
08:44 74.1 °F /  23.4 °C 66 °F /  18.9 °C 29.9in /  1013.7hPa NE 3.1mph /  5km/h 6.4mph /  10.3km/h 76% 0in /  0.0mm
08:49 74.1 °F /  23.4 °C 66 °F /  18.9 °C 29.9in /  1013.7hPa NNE 3.4mph /  5.5km/h 7mph /  11.3km/h 76% 0in /  0.0mm
08:54 74.1 °F /  23.4 °C 66 °F /  18.9 °C 29.9in /  1013.9hPa NE 3.6mph /  5.8km/h 6mph /  9.7km/h 76% 0in /  0.0mm
08:59 74.1 °F /  23.4 °C 66.2 °F /  19 °C 29.9in /  1013.9hPa NNE 3.2mph /  5.2km/h 6.2mph /  10km/h 76% 0in /  0.0mm
09:04 74.5 °F /  23.6 °C 66.4 °F /  19.1 °C 29.9in /  1013.9hPa NE 3.1mph /  5km/h 6.2mph /  10km/h 76% 0in /  0.0mm
09:09 74.5 °F /  23.6 °C 66.4 °F /  19.1 °C 29.9in /  1013.9hPa NE 3.9mph /  6.3km/h 7.4mph /  11.9km/h 76% 0in /  0.0mm
09:14 74.7 °F /  23.7 °C 66.4 °F /  19.1 °C 29.9in /  1013.9hPa NNE 4.3mph /  6.9km/h 8.7mph /  14km/h 75.7% 0in /  0.0mm
09:19 74.7 °F /  23.7 °C 66.2 °F /  19 °C 29.9in /  1013.9hPa NNE 4.8mph /  7.8km/h 10.7mph /  17.2km/h 75% 0in /  0.0mm
09:24 74.7 °F /  23.7 °C 66.2 °F /  19 °C 29.9in /  1013.9hPa NE 5.2mph /  8.4km/h 11mph /  17.7km/h 75% 0in /  0.0mm
09:29 74.8 °F /  23.8 °C 66.4 °F /  19.1 °C 29.9in /  1013.9hPa NNE 5.7mph /  9.1km/h 9mph /  14.5km/h 75% 0in /  0.0mm
09:34 74.8 °F /  23.8 °C 66.4 °F /  19.1 °C 29.9in /  1013.9hPa NNE 5.9mph /  9.5km/h 9.2mph /  14.8km/h 75% 0in /  0.0mm
09:39 75 °F /  23.9 °C 66.4 °F /  19.1 °C 29.9in /  1014.0hPa NE 5.6mph /  9km/h 9.7mph /  15.6km/h 74.6% 0in /  0.0mm
09:44 75 °F /  23.9 °C 66.2 °F /  19 °C 29.9in /  1014.0hPa NE 5.4mph /  8.7km/h 11.8mph /  19km/h 74.1% 0in /  0.0mm
09:49 75.4 °F /  24.1 °C 66.6 °F /  19.2 °C 29.9in /  1014.0hPa NE 6mph /  9.7km/h 12mph /  19.3km/h 74.4% 0in /  0.0mm
09:54 75.7 °F /  24.3 °C 66.7 °F /  19.3 °C 29.9in /  1014.0hPa NNE 6.4mph /  10.3km/h 12mph /  19.3km/h 73.3% 0in /  0.0mm
09:59 75.9 °F /  24.4 °C 66.6 °F /  19.2 °C 29.9in /  1014.0hPa NNE 6.3mph /  10.1km/h 12mph /  19.3km/h 73% 0in /  0.0mm
10:04 76.1 °F /  24.5 °C 66.7 °F /  19.3 °C 29.9in /  1014.0hPa NE 6.2mph /  10km/h 11mph /  17.7km/h 73% 0in /  0.0mm
10:09 76.5 °F /  24.7 °C 66.9 °F /  19.4 °C 29.9in /  1014.1hPa NE 6mph /  9.7km/h 10mph /  16.1km/h 72.2% 0in /  0.0mm
10:14 76.5 °F /  24.7 °C 66.7 °F /  19.3 °C 29.9in /  1014.1hPa NE 5.9mph /  9.5km/h 11.8mph /  19km/h 72% 0in /  0.0mm
10:19 76.6 °F /  24.8 °C 66.9 °F /  19.4 °C 29.9in /  1014.1hPa NE 6.6mph /  10.6km/h 12mph /  19.3km/h 72% 0in /  0.0mm
10:24 77 °F /  25 °C 66.9 °F /  19.4 °C 29.9in /  1014.1hPa NNE 6.9mph /  11.1km/h 10.7mph /  17.2km/h 71.2% 0in /  0.0mm
10:29 77.4 °F /  25.2 °C 67.1 °F /  19.5 °C 29.9in /  1014.0hPa NNE 6.9mph /  11.1km/h 13mph /  20.9km/h 71% 0in /  0.0mm
10:34 77.9 °F /  25.5 °C 67.5 °F /  19.7 °C 29.9in /  1014.0hPa NE 6.9mph /  11.1km/h 13mph /  20.9km/h 70.3% 0in /  0.0mm
10:39 78.3 °F /  25.7 °C 67.1 °F /  19.5 °C 29.9in /  1014.0hPa NE 6.2mph /  10km/h 11.8mph /  19km/h 68.5% 0in /  0.0mm
10:44 78.4 °F /  25.8 °C 66.9 °F /  19.4 °C 29.9in /  1013.9hPa NE 5.9mph /  9.5km/h 13mph /  20.9km/h 67.8% 0in /  0.0mm
10:49 78.3 °F /  25.7 °C 66.7 °F /  19.3 °C 29.9in /  1013.9hPa NNE 6.5mph /  10.4km/h 13mph /  20.9km/h 67.6% 0in /  0.0mm
10:54 78.3 °F /  25.7 °C 66.7 °F /  19.3 °C 29.9in /  1013.9hPa NNE 6.9mph /  11.1km/h 11.5mph /  18.5km/h 67.9% 0in /  0.0mm
10:59 78.1 °F /  25.6 °C 66.9 °F /  19.4 °C 29.9in /  1013.9hPa NNE 6.9mph /  11.1km/h 12mph /  19.3km/h 68.8% 0in /  0.0mm
11:04 78.1 °F /  25.6 °C 66.9 °F /  19.4 °C 29.9in /  1013.9hPa NNE 6.9mph /  11.1km/h 13.7mph /  22km/h 68.5% 0in /  0.0mm
11:09 78.3 °F /  25.7 °C 66.2 °F /  19 °C 29.9in /  1013.9hPa NE 6.3mph /  10.1km/h 14mph /  22.5km/h 66.8% 0in /  0.0mm
11:14 79 °F /  26.1 °C 66.2 °F /  19 °C 29.9in /  1013.8hPa NE 5.9mph /  9.5km/h 12mph /  19.3km/h 65.3% 0in /  0.0mm
11:19 79.3 °F /  26.3 °C 66 °F /  18.9 °C 29.9in /  1013.8hPa NE 6.9mph /  11.1km/h 12mph /  19.3km/h 63.8% 0in /  0.0mm
11:24 79.5 °F /  26.4 °C 66 °F /  18.9 °C 29.9in /  1013.8hPa NE 7.4mph /  11.9km/h 13mph /  20.9km/h 63.3% 0in /  0.0mm
11:29 79.5 °F /  26.4 °C 66.4 °F /  19.1 °C 29.9in /  1013.8hPa NNE 7.5mph /  12.1km/h 13mph /  20.9km/h 64% 0in /  0.0mm
11:34 79.5 °F /  26.4 °C 65.7 °F /  18.7 °C 29.9in /  1013.8hPa NE 7.6mph /  12.2km/h 12mph /  19.3km/h 63% 0in /  0.0mm
11:39 79.7 °F /  26.5 °C 65.8 °F /  18.8 °C 29.9in /  1013.8hPa NE 6.8mph /  10.9km/h 11.5mph /  18.5km/h 62.5% 0in /  0.0mm
11:44 80.1 °F /  26.7 °C 65.5 °F /  18.6 °C 29.9in /  1013.8hPa NE 6.4mph /  10.3km/h 12mph /  19.3km/h 61.1% 0in /  0.0mm
11:49 80.1 °F /  26.7 °C 65.1 °F /  18.4 °C 29.9in /  1013.8hPa NE 6.4mph /  10.3km/h 12mph /  19.3km/h 60.4% 0in /  0.0mm
11:54 80.2 °F /  26.8 °C 64.9 °F /  18.3 °C 29.9in /  1013.9hPa NE 6.4mph /  10.3km/h 13mph /  20.9km/h 59.7% 0in /  0.0mm
11:59 80.2 °F /  26.8 °C 64.2 °F /  17.9 °C 29.9in /  1013.9hPa NE 6.4mph /  10.3km/h 13mph /  20.9km/h 58.2% 0in /  0.0mm
12:04 80.1 °F /  26.7 °C 64.4 °F /  18 °C 29.9in /  1013.9hPa NNE 6.4mph /  10.3km/h 13mph /  20.9km/h 59% 0in /  0.0mm
12:09 80.2 °F /  26.8 °C 64.4 °F /  18 °C 29.9in /  1013.9hPa NNE 7.1mph /  11.4km/h 12.7mph /  20.4km/h 58.7% 0in /  0.0mm
12:14 80.6 °F /  27 °C 64.2 °F /  17.9 °C 29.9in /  1013.8hPa NE 7.6mph /  12.2km/h 16.1mph /  25.9km/h 57.4% 0in /  0.0mm
12:19 80.8 °F /  27.1 °C 63.9 °F /  17.7 °C 29.9in /  1013.8hPa NE 8.1mph /  13.1km/h 16mph /  25.7km/h 56.4% 0in /  0.0mm
12:24 81 °F /  27.2 °C 63.5 °F /  17.5 °C 29.9in /  1013.8hPa NNE 8.5mph /  13.7km/h 15mph /  24.1km/h 55.5% 0in /  0.0mm
12:29 81.1 °F /  27.3 °C 63.3 °F /  17.4 °C 29.9in /  1013.7hPa ENE 7.5mph /  12.1km/h 13mph /  20.9km/h 54.8% 0in /  0.0mm
12:34 81.7 °F /  27.6 °C 63.3 °F /  17.4 °C 29.9in /  1013.7hPa NE 6.9mph /  11.1km/h 14mph /  22.5km/h 54% 0in /  0.0mm
12:39 81.9 °F /  27.7 °C 63.5 °F /  17.5 °C 29.9in /  1013.8hPa NNE 6.5mph /  10.4km/h 15mph /  24.1km/h 53.9% 0in /  0.0mm
12:44 81.7 °F /  27.6 °C 63.5 °F /  17.5 °C 29.9in /  1013.8hPa NE 6.2mph /  10km/h 15mph /  24.1km/h 54% 0in /  0.0mm
12:49 81.3 °F /  27.4 °C 63.3 °F /  17.4 °C 29.9in /  1013.8hPa North 7.8mph /  12.5km/h 14mph /  22.5km/h 54.2% 0in /  0.0mm
12:54 81.7 °F /  27.6 °C 63.3 °F /  17.4 °C 29.9in /  1013.8hPa NNE 8.5mph /  13.7km/h 15mph /  24.1km/h 53.6% 0in /  0.0mm
12:59 82.2 °F /  27.9 °C 63.3 °F /  17.4 °C 29.9in /  1013.6hPa NE 8.3mph /  13.3km/h 15mph /  24.1km/h 53% 0in /  0.0mm
13:04 82.6 °F /  28.1 °C 63.3 °F /  17.4 °C 29.9in /  1013.6hPa NE 8.1mph /  13km/h 15.2mph /  24.5km/h 52.1% 0in /  0.0mm
13:09 82.8 °F /  28.2 °C 62.8 °F /  17.1 °C 29.9in /  1013.6hPa NNE 8.1mph /  13km/h 17.3mph /  27.8km/h 51.1% 0in /  0.0mm
13:14 82.8 °F /  28.2 °C 62.8 °F /  17.1 °C 29.9in /  1013.4hPa NNE 8.1mph /  13km/h 17mph /  27.4km/h 51.1% 0in /  0.0mm
13:19 82.8 °F /  28.2 °C 62.6 °F /  17 °C 29.9in /  1013.4hPa North 8.5mph /  13.7km/h 16.1mph /  25.9km/h 51% 0in /  0.0mm
13:24 82.8 °F /  28.2 °C 62.8 °F /  17.1 °C 29.9in /  1013.5hPa NE 8.7mph /  14km/h 16mph /  25.7km/h 51.1% 0in /  0.0mm
13:29 82.8 °F /  28.2 °C 63 °F /  17.2 °C 29.9in /  1013.5hPa NNE 7.9mph /  12.7km/h 15mph /  24.1km/h 51.3% 0in /  0.0mm
13:34 83.3 °F /  28.5 °C 62.8 °F /  17.1 °C 29.9in /  1013.5hPa NNE 7.4mph /  11.9km/h 16.3mph /  26.2km/h 50.3% 0in /  0.0mm
13:39 83.5 °F /  28.6 °C 63 °F /  17.2 °C 29.9in /  1013.5hPa NE 7.1mph /  11.4km/h 16mph /  25.7km/h 50.2% 0in /  0.0mm
13:44 83.3 °F /  28.5 °C 62.4 °F /  16.9 °C 29.9in /  1013.3hPa ENE 6.9mph /  11.1km/h 14mph /  22.5km/h 49.7% 0in /  0.0mm
13:49 83.5 °F /  28.6 °C 62.6 °F /  17 °C 29.9in /  1013.3hPa NE 6.9mph /  11.1km/h 14mph /  22.5km/h 49.5% 0in /  0.0mm
13:54 83.5 °F /  28.6 °C 62.8 °F /  17.1 °C 29.9in /  1013.3hPa NE 6.9mph /  11.1km/h 18.4mph /  29.6km/h 49.9% 0in /  0.0mm
13:59 82.9 °F /  28.3 °C 63.5 °F /  17.5 °C 29.9in /  1013.3hPa NE 9mph /  14.5km/h 18mph /  29km/h 52.3% 0in /  0.0mm
14:04 82.9 °F /  28.3 °C 63.7 °F /  17.6 °C 29.9in /  1013.3hPa NNE 10mph /  16.1km/h 18.4mph /  29.6km/h 52.5% 0in /  0.0mm
14:09 82.8 °F /  28.2 °C 63.5 °F /  17.5 °C 29.9in /  1013.3hPa NNE 10.4mph /  16.8km/h 18mph /  29km/h 52.5% 0in /  0.0mm
14:14 82.8 °F /  28.2 °C 63.3 °F /  17.4 °C 29.9in /  1013.1hPa NNE 10.7mph /  17.2km/h 18.5mph /  29.8km/h 52.3% 0in /  0.0mm
14:19 82.4 °F /  28 °C 63.5 °F /  17.5 °C 29.9in /  1013.1hPa NE 10.3mph /  16.5km/h 19mph /  30.6km/h 53% 0in /  0.0mm
14:24 82.8 °F /  28.2 °C 63.1 °F /  17.3 °C 29.9in /  1013.2hPa NE 10mph /  16.1km/h 14mph /  22.5km/h 51.6% 0in /  0.0mm
14:29 83.3 °F /  28.5 °C 63.1 °F /  17.3 °C 29.9in /  1013.2hPa NE 8.4mph /  13.6km/h 17mph /  27.4km/h 50.7% 0in /  0.0mm
14:34 83.7 °F /  28.7 °C 63.3 °F /  17.4 °C 29.9in /  1013.2hPa ENE 7.6mph /  12.2km/h 17.3mph /  27.8km/h 50.4% 0in /  0.0mm
14:39 84.4 °F /  29.1 °C 62.8 °F /  17.1 °C 29.9in /  1013.2hPa ENE 7.6mph /  12.2km/h 14mph /  22.5km/h 48.5% 0in /  0.0mm
14:44 84.7 °F /  29.3 °C 62.8 °F /  17.1 °C 29.9in /  1012.9hPa NE 7.6mph /  12.2km/h 15mph /  24.1km/h 47.8% 0in /  0.0mm
14:49 84.6 °F /  29.2 °C 62.6 °F /  17 °C 29.9in /  1012.9hPa NE 7.6mph /  12.2km/h 15mph /  24.1km/h 48.1% 0in /  0.0mm
14:54 84.2 °F /  29 °C 63 °F /  17.2 °C 29.9in /  1012.9hPa NE 7.6mph /  12.2km/h 15mph /  24.1km/h 49% 0in /  0.0mm
14:59 84.4 °F /  29.1 °C 62.6 °F /  17 °C 29.9in /  1012.8hPa NE 8.3mph /  13.4km/h 16.3mph /  26.2km/h 48.2% 0in /  0.0mm
15:04 84.6 °F /  29.2 °C 62.6 °F /  17 °C 29.9in /  1012.8hPa Este 8.7mph /  14km/h 16mph /  25.7km/h 48% 0in /  0.0mm
15:09 84.7 °F /  29.3 °C 63 °F /  17.2 °C 29.9in /  1012.8hPa NE 7.8mph /  12.6km/h 15mph /  24.1km/h 48% 0in /  0.0mm
15:14 84.7 °F /  29.3 °C 62.8 °F /  17.1 °C 29.9in /  1012.7hPa ENE 7.4mph /  11.9km/h 17.3mph /  27.8km/h 47.7% 0in /  0.0mm
15:19 84.7 °F /  29.3 °C 63.1 °F /  17.3 °C 29.9in /  1012.7hPa ENE 7.5mph /  12.1km/h 17.5mph /  28.2km/h 48.3% 0in /  0.0mm
15:24 84.4 °F /  29.1 °C 62.6 °F /  17 °C 29.9in /  1012.7hPa NE 7.6mph /  12.2km/h 17mph /  27.4km/h 48.2% 0in /  0.0mm
15:29 84 °F /  28.9 °C 62.6 °F /  17 °C 29.9in /  1012.7hPa ENE 9.1mph /  14.7km/h 16.3mph /  26.2km/h 48.7% 0in /  0.0mm
15:34 84.2 °F /  29 °C 63.3 °F /  17.4 °C 29.9in /  1012.7hPa NE 10.2mph /  16.4km/h 16.1mph /  25.9km/h 49.8% 0in /  0.0mm
15:39 84.4 °F /  29.1 °C 63.3 °F /  17.4 °C 29.9in /  1012.7hPa ENE 9.9mph /  15.9km/h 17.3mph /  27.8km/h 49.5% 0in /  0.0mm
15:44 84.4 °F /  29.1 °C 63.5 °F /  17.5 °C 29.9in /  1012.6hPa NE 9.7mph /  15.6km/h 22.3mph /  35.9km/h 49.8% 0in /  0.0mm
15:49 84 °F /  28.9 °C 63.9 °F /  17.7 °C 29.9in /  1012.6hPa NE 9.7mph /  15.6km/h 22mph /  35.4km/h 50.8% 0in /  0.0mm
15:54 83.7 °F /  28.7 °C 63.7 °F /  17.6 °C 29.9in /  1012.6hPa NE 9.7mph /  15.6km/h 20mph /  32.2km/h 51.3% 0in /  0.0mm
15:59 83.8 °F /  28.8 °C 63.9 °F /  17.7 °C 29.9in /  1012.5hPa NE 11.4mph /  18.4km/h 18mph /  29km/h 51.2% 0in /  0.0mm
16:04 83.8 °F /  28.8 °C 63.9 °F /  17.7 °C 29.9in /  1012.5hPa NE 12.3mph /  19.8km/h 17.5mph /  28.2km/h 51.1% 0in /  0.0mm
16:09 83.8 °F /  28.8 °C 64.2 °F /  17.9 °C 29.9in /  1012.5hPa NE 10.9mph /  17.5km/h 19.7mph /  31.7km/h 51.8% 0in /  0.0mm
16:14 84 °F /  28.9 °C 65.1 °F /  18.4 °C 29.9in /  1012.4hPa ENE 10mph /  16.1km/h 20mph /  32.2km/h 53.3% 0in /  0.0mm
16:19 83.8 °F /  28.8 °C 65.1 °F /  18.4 °C 29.9in /  1012.4hPa NE 10.4mph /  16.7km/h 18.4mph /  29.6km/h 53.3% 0in /  0.0mm
16:24 83.8 °F /  28.8 °C 64.9 °F /  18.3 °C 29.9in /  1012.4hPa NE 10.7mph /  17.2km/h 18mph /  29km/h 53% 0in /  0.0mm
16:29 84 °F /  28.9 °C 64.9 °F /  18.3 °C 29.9in /  1012.4hPa NE 9.4mph /  15.2km/h 20.7mph /  33.3km/h 52.8% 0in /  0.0mm
16:34 83.7 °F /  28.7 °C 64.9 °F /  18.3 °C 29.9in /  1012.4hPa NE 8.5mph /  13.7km/h 21mph /  33.8km/h 53.5% 0in /  0.0mm
16:39 83.1 °F /  28.4 °C 64.6 °F /  18.1 °C 29.9in /  1012.4hPa NE 10.7mph /  17.2km/h 18.4mph /  29.6km/h 53.7% 0in /  0.0mm
16:44 82.9 °F /  28.3 °C 64.6 °F /  18.1 °C 29.9in /  1012.4hPa ENE 11.8mph /  19km/h 19mph /  30.6km/h 54.1% 0in /  0.0mm
16:49 82.8 °F /  28.2 °C 65.3 °F /  18.5 °C 29.9in /  1012.4hPa ENE 10.7mph /  17.3km/h 19mph /  30.6km/h 55.8% 0in /  0.0mm
16:54 82.9 °F /  28.3 °C 65.7 °F /  18.7 °C 29.9in /  1012.5hPa ENE 10.2mph /  16.4km/h 19mph /  30.6km/h 56.1% 0in /  0.0mm
16:59 82.9 °F /  28.3 °C 65.7 °F /  18.7 °C 29.9in /  1012.5hPa ENE 9.6mph /  15.4km/h 17.3mph /  27.8km/h 55.8% 0in /  0.0mm
17:04 82.9 °F /  28.3 °C 65.7 °F /  18.7 °C 29.9in /  1012.5hPa ENE 9.2mph /  14.8km/h 19.7mph /  31.7km/h 56% 0in /  0.0mm
17:09 82.9 °F /  28.3 °C 65.8 °F /  18.8 °C 29.9in /  1012.5hPa NE 9.5mph /  15.3km/h 20mph /  32.2km/h 56.5% 0in /  0.0mm
17:14 82.8 °F /  28.2 °C 65.8 °F /  18.8 °C 29.9in /  1012.3hPa NE 9.7mph /  15.6km/h 18.4mph /  29.6km/h 56.6% 0in /  0.0mm
17:19 82.4 °F /  28 °C 66 °F /  18.9 °C 29.9in /  1012.3hPa NE 10.3mph /  16.5km/h 20.8mph /  33.5km/h 57.8% 0in /  0.0mm
17:24 82 °F /  27.8 °C 65.8 °F /  18.8 °C 29.9in /  1012.3hPa NE 10.7mph /  17.2km/h 21mph /  33.8km/h 58% 0in /  0.0mm
17:29 82 °F /  27.8 °C 65.7 °F /  18.7 °C 29.9in /  1012.3hPa NE 11mph /  17.7km/h 21mph /  33.8km/h 57.8% 0in /  0.0mm
17:34 82 °F /  27.8 °C 65.8 °F /  18.8 °C 29.9in /  1012.3hPa ENE 11.2mph /  18km/h 20.8mph /  33.5km/h 58% 0in /  0.0mm
17:39 82.2 °F /  27.9 °C 66 °F /  18.9 °C 29.9in /  1012.3hPa Este 10.4mph /  16.8km/h 21mph /  33.8km/h 57.9% 0in /  0.0mm
17:44 82.2 °F /  27.9 °C 66.4 °F /  19.1 °C 29.9in /  1012.3hPa ENE 10mph /  16.1km/h 18mph /  29km/h 58.8% 0in /  0.0mm
17:49 82 °F /  27.8 °C 66.2 °F /  19 °C 29.9in /  1012.3hPa ENE 9.5mph /  15.3km/h 20.7mph /  33.3km/h 58.8% 0in /  0.0mm
17:54 82 °F /  27.8 °C 66.2 °F /  19 °C 29.9in /  1012.3hPa NE 9.2mph /  14.8km/h 21mph /  33.8km/h 58.7% 0in /  0.0mm
17:59 82 °F /  27.8 °C 66 °F /  18.9 °C 29.9in /  1012.3hPa ENE 8.8mph /  14.1km/h 17.3mph /  27.8km/h 58.3% 0in /  0.0mm
18:04 82 °F /  27.8 °C 65.7 °F /  18.7 °C 29.9in /  1012.3hPa ENE 8.5mph /  13.7km/h 17.3mph /  27.8km/h 57.7% 0in /  0.0mm
18:09 82 °F /  27.8 °C 65.3 °F /  18.5 °C 29.9in /  1012.3hPa NE 8.2mph /  13.2km/h 17.8mph /  28.6km/h 57% 0in /  0.0mm
18:14 82 °F /  27.8 °C 65.3 °F /  18.5 °C 29.9in /  1012.3hPa NE 8.1mph /  13km/h 18.4mph /  29.6km/h 57% 0in /  0.0mm
18:19 81.9 °F /  27.7 °C 65.5 °F /  18.6 °C 29.9in /  1012.3hPa ENE 9.1mph /  14.7km/h 18.4mph /  29.6km/h 57.8% 0in /  0.0mm
18:24 81.7 °F /  27.6 °C 65.1 °F /  18.4 °C 29.9in /  1012.3hPa ENE 9.7mph /  15.6km/h 18mph /  29km/h 57.2% 0in /  0.0mm
18:29 81.7 °F /  27.6 °C 65.5 °F /  18.6 °C 29.9in /  1012.3hPa ENE 8.3mph /  13.4km/h 19mph /  30.6km/h 57.9% 0in /  0.0mm
18:34 81.5 °F /  27.5 °C 65.3 °F /  18.5 °C 29.9in /  1012.3hPa ENE 7.6mph /  12.2km/h 19mph /  30.6km/h 58% 0in /  0.0mm
18:39 81.3 °F /  27.4 °C 64.6 °F /  18.1 °C 29.9in /  1012.4hPa NE 8.9mph /  14.3km/h 17.5mph /  28.2km/h 57.1% 0in /  0.0mm
18:44 81.1 °F /  27.3 °C 64.4 °F /  18 °C 29.9in /  1012.4hPa ENE 9.7mph /  15.6km/h 17.3mph /  27.8km/h 56.9% 0in /  0.0mm
18:49 81.1 °F /  27.3 °C 63.9 °F /  17.7 °C 29.9in /  1012.4hPa NE 9.1mph /  14.6km/h 17mph /  27.4km/h 55.7% 0in /  0.0mm
18:54 81.1 °F /  27.3 °C 64.6 °F /  18.1 °C 29.9in /  1012.5hPa NE 8.7mph /  14km/h 16mph /  25.7km/h 57% 0in /  0.0mm
18:59 81.1 °F /  27.3 °C 64.4 °F /  18 °C 29.9in /  1012.5hPa ENE 8.6mph /  13.8km/h 15mph /  24.1km/h 56.9% 0in /  0.0mm
19:04 81.5 °F /  27.5 °C 64.4 °F /  18 °C 29.9in /  1012.5hPa ENE 8.5mph /  13.7km/h 17.5mph /  28.2km/h 56% 0in /  0.0mm
19:09 81.7 °F /  27.6 °C 64.9 °F /  18.3 °C 29.9in /  1012.6hPa NE 7.9mph /  12.7km/h 17.5mph /  28.2km/h 56.7% 0in /  0.0mm
19:14 81.7 °F /  27.6 °C 65.1 °F /  18.4 °C 29.9in /  1012.6hPa NE 7.6mph /  12.2km/h 17.3mph /  27.8km/h 57.3% 0in /  0.0mm
19:19 81.3 °F /  27.4 °C 64.8 °F /  18.2 °C 29.9in /  1012.6hPa ENE 8mph /  12.8km/h 17mph /  27.4km/h 57.1% 0in /  0.0mm
19:24 81.1 °F /  27.3 °C 65.5 °F /  18.6 °C 29.9in /  1012.6hPa ENE 8.1mph /  13km/h 15.9mph /  25.6km/h 59% 0in /  0.0mm
19:29 81.1 °F /  27.3 °C 65.7 °F /  18.7 °C 29.9in /  1012.6hPa ENE 8.4mph /  13.6km/h 16.1mph /  25.9km/h 59.3% 0in /  0.0mm
19:34 81.1 °F /  27.3 °C 66.2 °F /  19 °C 29.9in /  1012.6hPa ENE 8.7mph /  14km/h 16mph /  25.7km/h 60.6% 0in /  0.0mm
19:39 81 °F /  27.2 °C 65.8 °F /  18.8 °C 29.9in /  1012.9hPa ENE 9.3mph /  14.9km/h 17.5mph /  28.2km/h 60.2% 0in /  0.0mm
19:44 80.8 °F /  27.1 °C 66 °F /  18.9 °C 29.9in /  1012.9hPa ENE 9.7mph /  15.6km/h 17mph /  27.4km/h 60.8% 0in /  0.0mm
19:49 80.8 °F /  27.1 °C 66.4 °F /  19.1 °C 29.9in /  1012.9hPa ENE 8.6mph /  13.9km/h 14mph /  22.5km/h 61.8% 0in /  0.0mm
19:54 80.8 °F /  27.1 °C 66 °F /  18.9 °C 29.9in /  1012.9hPa ENE 8.1mph /  13km/h 13mph /  20.9km/h 61% 0in /  0.0mm
19:59 80.4 °F /  26.9 °C 65.5 °F /  18.6 °C 29.9in /  1012.9hPa ENE 7.8mph /  12.5km/h 14mph /  22.5km/h 60.5% 0in /  0.0mm
20:04 80.4 °F /  26.9 °C 66.2 °F /  19 °C 29.9in /  1012.9hPa ENE 7.6mph /  12.2km/h 14mph /  22.5km/h 62.1% 0in /  0.0mm
20:09 80.4 °F /  26.9 °C 66.7 °F /  19.3 °C 29.9in /  1013.2hPa NE 7.2mph /  11.6km/h 13mph /  20.9km/h 63% 0in /  0.0mm
20:14 80.4 °F /  26.9 °C 66.7 °F /  19.3 °C 29.9in /  1013.2hPa NE 6.9mph /  11.1km/h 13mph /  20.9km/h 63% 0in /  0.0mm
20:19 80.2 °F /  26.8 °C 66.6 °F /  19.2 °C 29.9in /  1013.2hPa NE 6.3mph /  10.1km/h 14.7mph /  23.7km/h 63.3% 0in /  0.0mm
20:24 79.9 °F /  26.6 °C 66.6 °F /  19.2 °C 29.9in /  1013.4hPa NE 5.9mph /  9.5km/h 15mph /  24.1km/h 63.9% 0in /  0.0mm
Murcia-Puente Tocinos, España
Compliments of Weather Underground - 2.5 mb

La estación de MeteoMurcia.com, publica sus datos en los siguientes proyectos:

Weather Underground PWS IMURCIAP2 Meteoclimatic www.awekas.at

W3Counter
Web Analytics